PWSweather.com
Personal Weather Stations
Station Observations
UXOLA
Alcoy, AlcoyES

AlcoyAlcoyES

Lat: 38.70299, Lon: -0.48184

Elevation: 1935

Station Type: PCE FWS-20,

http://www.fiestasalcoy.xyz

High Low Average
Temperature 40.8°F4.9°C 33.3°F0.7°C 36.6°F2.6°C
Dew Point 37.0°F2.8°C 21.7°F-5.7°C 30.9°F-0.6°C
Winds 8.3 mph 13.4 kmh Calm Calm 3.0 mph S4.8 kmh S
Wind Gusts 16.8 mph27.0 kmh 1.6 mph2.6 kmh 6.0 mph9.7 kmh
Humidity 91% 53% 80%
Pressure 29.38 in994.9 mb 29.11 in985.8 mb -
Precipitation 0.50 in12.7 mm - -
Hour Temp Dew Point Humidity Winds Wind Gusts Pressure Precip Precip Rate Daily Precip Total
12:00 AM 40.8°F4.9°C 37.0°F2.8°C 86% 6.0 mph NE9.7 kmh NE 9.8 mph15.8 kmh 29.18 in988.1 mb 0.08 in2.0 mm 0.00 in0.0 mm 0.08 in2.0 mm
12:45 AM 37.9°F3.3°C 34.1°F1.2°C 86% 3.8 mph NE6.1 kmh NE 11.4 mph18.3 kmh 29.18 in988.1 mb 0.08 in2.0 mm 0.00 in0.0 mm 0.06 in1.5 mm
01:00 AM 37.6°F3.1°C 33.8°F1.0°C 86% 6.0 mph ENE9.7 kmh ENE 10.7 mph17.2 kmh 29.18 in988.1 mb 0.07 in1.8 mm 0.00 in0.0 mm 0.07 in1.8 mm
01:15 AM 37.2°F2.9°C 34.0°F1.1°C 88% 6.0 mph NE9.7 kmh NE 11.4 mph18.3 kmh 29.17 in987.8 mb 0.06 in1.5 mm 0.00 in0.0 mm 0.08 in2.0 mm
01:30 AM 36.9°F2.7°C 33.9°F1.1°C 89% 3.8 mph NE6.1 kmh NE 10.7 mph17.2 kmh 29.17 in987.8 mb 0.06 in1.5 mm 0.00 in0.0 mm 0.09 in2.3 mm
01:45 AM 36.7°F2.6°C 33.8°F1.0°C 89% 3.8 mph ENE6.1 kmh ENE 7.6 mph12.2 kmh 29.17 in987.8 mb 0.05 in1.3 mm 0.00 in0.0 mm 0.11 in2.8 mm
02:00 AM 36.5°F2.5°C 33.9°F1.1°C 90% 2.2 mph NE3.5 kmh NE 6.0 mph9.7 kmh 29.17 in987.8 mb 0.05 in1.3 mm 0.00 in0.0 mm 0.12 in3.0 mm
02:15 AM 36.1°F2.3°C 33.5°F0.8°C 90% 4.5 mph NE7.2 kmh NE 6.0 mph9.7 kmh 29.15 in987.1 mb 0.05 in1.3 mm 0.00 in0.0 mm 0.13 in3.3 mm
02:30 AM 36.3°F2.4°C 33.7°F0.9°C 90% 3.1 mph NE5.0 kmh NE 6.9 mph11.1 kmh 29.15 in987.1 mb 0.05 in1.3 mm 0.00 in0.0 mm 0.14 in3.6 mm
02:45 AM 36.0°F2.2°C 33.0°F0.6°C 89% 2.2 mph ENE3.5 kmh ENE 6.0 mph9.7 kmh 29.14 in986.8 mb 0.05 in1.3 mm 0.00 in0.0 mm 0.15 in3.8 mm
03:00 AM 35.8°F2.1°C 32.9°F0.5°C 89% 2.2 mph ENE3.5 kmh ENE 4.5 mph7.2 kmh 29.14 in986.8 mb 0.05 in1.3 mm 0.00 in0.0 mm 0.17 in4.3 mm
03:15 AM 35.8°F2.1°C 32.9°F0.5°C 89% 3.8 mph ENE6.1 kmh ENE 7.6 mph12.2 kmh 29.14 in986.8 mb 0.05 in1.3 mm 0.00 in0.0 mm 0.18 in4.6 mm
03:30 AM 35.6°F2.0°C 33.0°F0.6°C 90% 0.7 mph ESE1.1 kmh ESE 3.1 mph5.0 kmh 29.14 in986.8 mb 0.04 in1.0 mm 0.00 in0.0 mm 0.18 in4.6 mm
03:45 AM 35.6°F2.0°C 33.0°F0.6°C 90% Calm Calm 2.2 mph3.5 kmh 29.12 in986.1 mb 0.04 in1.0 mm 0.00 in0.0 mm 0.19 in4.8 mm
04:00 AM 35.4°F1.9°C 32.8°F0.4°C 90% 2.2 mph SW3.5 kmh SW 4.5 mph7.2 kmh 29.12 in986.1 mb 0.04 in1.0 mm 0.00 in0.0 mm 0.20 in5.1 mm
04:15 AM 34.9°F1.6°C 32.3°F0.2°C 90% 2.2 mph WSW3.5 kmh WSW 3.8 mph6.1 kmh 29.11 in985.8 mb 0.04 in1.0 mm 0.00 in0.0 mm 0.21 in5.3 mm
04:30 AM 35.1°F1.7°C 32.4°F0.2°C 90% 3.8 mph SW6.1 kmh SW 5.4 mph8.7 kmh 29.12 in986.1 mb 0.05 in1.3 mm 0.04 in1.0 mm 0.22 in5.6 mm
04:45 AM 34.7°F1.5°C 32.1°F0.1°C 90% 3.1 mph SW5.0 kmh SW 4.5 mph7.2 kmh 29.13 in986.5 mb 0.05 in1.3 mm 0.00 in0.0 mm 0.24 in6.1 mm
05:00 AM 34.5°F1.4°C 31.9°F-0.1°C 90% 1.6 mph SW2.6 kmh SW 3.8 mph6.1 kmh 29.14 in986.8 mb 0.05 in1.3 mm 0.00 in0.0 mm 0.25 in6.4 mm
05:15 AM 34.3°F1.3°C 31.7°F-0.2°C 90% Calm Calm 4.5 mph7.2 kmh 29.13 in986.5 mb 0.06 in1.5 mm 0.04 in1.0 mm 0.27 in6.9 mm
05:30 AM 34.3°F1.3°C 31.7°F-0.2°C 90% 0.7 mph WSW1.1 kmh WSW 3.8 mph6.1 kmh 29.13 in986.5 mb 0.06 in1.5 mm 0.00 in0.0 mm 0.28 in7.1 mm
05:45 AM 34.3°F1.3°C 31.7°F-0.2°C 90% 2.2 mph SW3.5 kmh SW 3.8 mph6.1 kmh 29.12 in986.1 mb 0.06 in1.5 mm 0.00 in0.0 mm 0.30 in7.6 mm
06:00 AM 34.2°F1.2°C 31.5°F-0.3°C 90% 4.5 mph SW7.2 kmh SW 6.9 mph11.1 kmh 29.13 in986.5 mb 0.06 in1.5 mm 0.00 in0.0 mm 0.31 in7.9 mm
06:15 AM 34.5°F1.4°C 31.9°F-0.1°C 90% 2.2 mph SW3.5 kmh SW 5.4 mph8.7 kmh 29.12 in986.1 mb 0.05 in1.3 mm 0.00 in0.0 mm 0.32 in8.1 mm
06:30 AM 34.9°F1.6°C 32.5°F0.3°C 91% 1.6 mph WSW2.6 kmh WSW 3.8 mph6.1 kmh 29.12 in986.1 mb 0.04 in1.0 mm 0.00 in0.0 mm 0.32 in8.1 mm
06:45 AM 36.0°F2.2°C 33.3°F0.7°C 90% 6.0 mph NE9.7 kmh NE 12.1 mph19.5 kmh 29.13 in986.5 mb 0.02 in0.5 mm 0.00 in0.0 mm 0.32 in8.1 mm
07:00 AM 36.5°F2.5°C 33.0°F0.6°C 87% 3.1 mph NE5.0 kmh NE 8.3 mph13.4 kmh 29.13 in986.5 mb 0.01 in0.3 mm 0.00 in0.0 mm 0.32 in8.1 mm
07:15 AM 36.9°F2.7°C 32.2°F0.1°C 83% 2.2 mph N3.5 kmh N 9.2 mph14.8 kmh 29.13 in986.5 mb 0.00 in0.0 mm 0.00 in0.0 mm 0.32 in8.1 mm
07:30 AM 37.2°F2.9°C 31.9°F-0.1°C 81% 2.2 mph NE3.5 kmh NE 9.2 mph14.8 kmh 29.12 in986.1 mb 0.00 in0.0 mm 0.00 in0.0 mm 0.32 in8.1 mm
07:45 AM 37.2°F2.9°C 31.6°F-0.2°C 80% 6.9 mph NE11.1 kmh NE 9.8 mph15.8 kmh 29.13 in986.5 mb 0.00 in0.0 mm 0.00 in0.0 mm 0.32 in8.1 mm
08:00 AM 36.9°F2.7°C 31.3°F-0.4°C 80% 3.1 mph NE5.0 kmh NE 9.8 mph15.8 kmh 29.13 in986.5 mb 0.00 in0.0 mm 0.00 in0.0 mm 0.32 in8.1 mm
08:15 AM 36.5°F2.5°C 30.9°F-0.6°C 80% 0.7 mph E1.1 kmh E 6.9 mph11.1 kmh 29.13 in986.5 mb 0.00 in0.0 mm 0.00 in0.0 mm 0.32 in8.1 mm
08:30 AM 36.3°F2.4°C 31.1°F-0.5°C 81% 2.2 mph ENE3.5 kmh ENE 5.4 mph8.7 kmh 29.14 in986.8 mb 0.00 in0.0 mm 0.00 in0.0 mm 0.32 in8.1 mm
08:45 AM 35.8°F2.1°C 30.5°F-0.8°C 81% 1.6 mph E2.6 kmh E 3.8 mph6.1 kmh 29.14 in986.8 mb 0.01 in0.3 mm 0.04 in1.0 mm 0.33 in8.4 mm
09:00 AM 35.6°F2.0°C 30.7°F-0.7°C 82% 0.7 mph NE1.1 kmh NE 1.6 mph2.6 kmh 29.14 in986.8 mb 0.01 in0.3 mm 0.00 in0.0 mm 0.33 in8.4 mm
09:15 AM 35.6°F2.0°C 31.0°F-0.6°C 83% 0.7 mph S1.1 kmh S 3.8 mph6.1 kmh 29.15 in987.1 mb 0.01 in0.3 mm 0.00 in0.0 mm 0.33 in8.4 mm
09:30 AM 35.2°F1.8°C 30.6°F-0.8°C 83% 1.6 mph SW2.6 kmh SW 3.8 mph6.1 kmh 29.15 in987.1 mb 0.01 in0.3 mm 0.00 in0.0 mm 0.33 in8.4 mm
09:45 AM 34.7°F1.5°C 30.4°F-0.9°C 84% 0.7 mph NE1.1 kmh NE 4.5 mph7.2 kmh 29.16 in987.5 mb 0.01 in0.3 mm 0.00 in0.0 mm 0.34 in8.6 mm
10:00 AM 34.2°F1.2°C 30.1°F-1.1°C 85% 1.6 mph SW2.6 kmh SW 5.4 mph8.7 kmh 29.17 in987.8 mb 0.01 in0.3 mm 0.00 in0.0 mm 0.34 in8.6 mm
10:15 AM 33.6°F0.9°C 29.6°F-1.3°C 85% Calm Calm 3.1 mph5.0 kmh 29.18 in988.1 mb 0.01 in0.3 mm 0.00 in0.0 mm 0.34 in8.6 mm
10:30 AM 33.4°F0.8°C 29.7°F-1.3°C 86% 0.7 mph WSW1.1 kmh WSW 2.2 mph3.5 kmh 29.19 in988.5 mb 0.01 in0.3 mm 0.00 in0.0 mm 0.34 in8.6 mm
10:45 AM 33.3°F0.7°C 29.8°F-1.2°C 87% 2.2 mph WSW3.5 kmh WSW 3.1 mph5.0 kmh 29.19 in988.5 mb 0.00 in0.0 mm 0.00 in0.0 mm 0.34 in8.6 mm
11:00 AM 33.4°F0.8°C 30.6°F-0.8°C 89% 3.8 mph W6.1 kmh W 4.5 mph7.2 kmh 29.19 in988.5 mb 0.00 in0.0 mm 0.00 in0.0 mm 0.34 in8.6 mm
11:15 AM 33.3°F0.7°C 30.4°F-0.9°C 89% 1.6 mph SE2.6 kmh SE 3.1 mph5.0 kmh 29.20 in988.8 mb 0.00 in0.0 mm 0.00 in0.0 mm 0.34 in8.6 mm
11:30 AM 33.4°F0.8°C 30.8°F-0.7°C 90% 1.6 mph E2.6 kmh E 3.1 mph5.0 kmh 29.20 in988.8 mb 0.01 in0.3 mm 0.04 in1.0 mm 0.35 in8.9 mm
11:45 AM 34.0°F1.1°C 31.4°F-0.3°C 90% 8.3 mph W13.4 kmh W 11.4 mph18.3 kmh 29.20 in988.8 mb 0.04 in1.0 mm 0.12 in3.0 mm 0.38 in9.7 mm
12:00 PM 34.5°F1.4°C 31.3°F-0.4°C 88% 0.7 mph WSW1.1 kmh WSW 10.7 mph17.2 kmh 29.20 in988.8 mb 0.06 in1.5 mm 0.03 in0.8 mm 0.40 in10.2 mm
12:15 PM 34.9°F1.6°C 31.1°F-0.5°C 86% 6.9 mph NE11.1 kmh NE 16.8 mph27.0 kmh 29.21 in989.2 mb 0.08 in2.0 mm 0.08 in2.0 mm 0.43 in10.9 mm
12:30 PM 35.1°F1.7°C 31.0°F-0.6°C 85% 5.4 mph E8.7 kmh E 11.4 mph18.3 kmh 29.21 in989.2 mb 0.08 in2.0 mm 0.00 in0.0 mm 0.44 in11.2 mm
12:45 PM 35.1°F1.7°C 30.7°F-0.7°C 84% 2.2 mph S3.5 kmh S 7.6 mph12.2 kmh 29.21 in989.2 mb 0.08 in2.0 mm 0.00 in0.0 mm 0.46 in11.7 mm
01:00 PM 35.2°F1.8°C 30.9°F-0.6°C 84% 3.8 mph E6.1 kmh E 11.4 mph18.3 kmh 29.21 in989.2 mb 0.07 in1.8 mm 0.00 in0.0 mm 0.47 in11.9 mm
01:15 PM 35.2°F1.8°C 30.9°F-0.6°C 84% 2.2 mph W3.5 kmh W 6.9 mph11.1 kmh 29.21 in989.2 mb 0.06 in1.5 mm 0.00 in0.0 mm 0.48 in12.2 mm
01:30 PM 35.8°F2.1°C 31.4°F-0.3°C 84% 3.1 mph SW5.0 kmh SW 3.8 mph6.1 kmh 29.21 in989.2 mb 0.06 in1.5 mm 0.00 in0.0 mm 0.50 in12.7 mm
01:45 PM 36.0°F2.2°C 31.9°F-0.1°C 85% 0.7 mph NE1.1 kmh NE 3.8 mph6.1 kmh 29.22 in989.5 mb 0.04 in1.0 mm 0.00 in0.0 mm 0.50 in12.7 mm
02:00 PM 36.3°F2.4°C 32.5°F0.3°C 86% 0.7 mph SSE1.1 kmh SSE 2.2 mph3.5 kmh 29.21 in989.2 mb 0.02 in0.5 mm 0.00 in0.0 mm 0.50 in12.7 mm
02:15 PM 37.0°F2.8°C 33.3°F0.7°C 86% 0.7 mph ENE1.1 kmh ENE 3.1 mph5.0 kmh 29.21 in989.2 mb 0.01 in0.3 mm 0.00 in0.0 mm 0.50 in12.7 mm
02:30 PM 37.2°F2.9°C 32.8°F0.4°C 84% 5.4 mph WSW8.7 kmh WSW 7.6 mph12.2 kmh 29.21 in989.2 mb 0.00 in0.0 mm 0.00 in0.0 mm 0.50 in12.7 mm
02:45 PM 37.4°F3.0°C 32.1°F0.1°C 81% 2.2 mph WSW3.5 kmh WSW 9.2 mph14.8 kmh 29.21 in989.2 mb 0.00 in0.0 mm 0.00 in0.0 mm 0.50 in12.7 mm
03:00 PM 37.9°F3.3°C 32.6°F0.3°C 81% 3.1 mph WSW5.0 kmh WSW 5.4 mph8.7 kmh 29.21 in989.2 mb 0.00 in0.0 mm 0.00 in0.0 mm 0.50 in12.7 mm
03:15 PM 38.3°F3.5°C 33.0°F0.6°C 81% 3.1 mph SW5.0 kmh SW 6.0 mph9.7 kmh 29.21 in989.2 mb 0.00 in0.0 mm 0.00 in0.0 mm 0.50 in12.7 mm
03:30 PM 38.7°F3.7°C 33.3°F0.7°C 81% 2.2 mph SW3.5 kmh SW 7.6 mph12.2 kmh 29.22 in989.5 mb 0.00 in0.0 mm 0.00 in0.0 mm 0.50 in12.7 mm
03:45 PM 39.0°F3.9°C 33.7°F0.9°C 81% 0.7 mph WSW1.1 kmh WSW 5.4 mph8.7 kmh 29.23 in989.8 mb 0.00 in0.0 mm 0.00 in0.0 mm 0.50 in12.7 mm
04:00 PM 39.4°F4.1°C 33.7°F0.9°C 80% 3.8 mph SW6.1 kmh SW 5.4 mph8.7 kmh 29.23 in989.8 mb 0.00 in0.0 mm 0.00 in0.0 mm 0.50 in12.7 mm
04:15 PM 39.6°F4.2°C 33.3°F0.7°C 78% 5.4 mph SW8.7 kmh SW 6.0 mph9.7 kmh 29.23 in989.8 mb 0.00 in0.0 mm 0.00 in0.0 mm 0.50 in12.7 mm
04:30 PM 39.9°F4.4°C 32.7°F0.4°C 75% 3.1 mph WSW5.0 kmh WSW 3.8 mph6.1 kmh 29.24 in990.2 mb 0.00 in0.0 mm 0.00 in0.0 mm 0.50 in12.7 mm
04:45 PM 40.1°F4.5°C 32.2°F0.1°C 73% 1.6 mph WSW2.6 kmh WSW 9.2 mph14.8 kmh 29.25 in990.5 mb 0.00 in0.0 mm 0.00 in0.0 mm 0.50 in12.7 mm
05:00 PM 40.1°F4.5°C 31.8°F-0.1°C 72% 0.7 mph SW1.1 kmh SW 7.6 mph12.2 kmh 29.26 in990.9 mb 0.00 in0.0 mm 0.00 in0.0 mm 0.50 in12.7 mm
05:15 PM 40.1°F4.5°C 32.2°F0.1°C 73% 2.2 mph WSW3.5 kmh WSW 5.4 mph8.7 kmh 29.26 in990.9 mb 0.00 in0.0 mm 0.00 in0.0 mm 0.50 in12.7 mm
05:30 PM 39.7°F4.3°C 32.1°F0.1°C 74% 3.1 mph WSW5.0 kmh WSW 3.8 mph6.1 kmh 29.27 in991.2 mb 0.00 in0.0 mm 0.00 in0.0 mm 0.50 in12.7 mm
05:45 PM 39.4°F4.1°C 31.8°F-0.1°C 74% 1.6 mph WSW2.6 kmh WSW 4.5 mph7.2 kmh 29.27 in991.2 mb 0.00 in0.0 mm 0.00 in0.0 mm 0.50 in12.7 mm
06:00 PM 39.2°F4.0°C 31.3°F-0.4°C 73% 3.1 mph SW5.0 kmh SW 4.5 mph7.2 kmh 29.27 in991.2 mb 0.00 in0.0 mm 0.00 in0.0 mm 0.50 in12.7 mm
06:15 PM 39.2°F4.0°C 31.3°F-0.4°C 73% 3.1 mph SW5.0 kmh SW 4.5 mph7.2 kmh 29.27 in991.2 mb 0.00 in0.0 mm 0.00 in0.0 mm 0.50 in12.7 mm
06:30 PM 39.2°F4.0°C 31.3°F-0.4°C 73% 3.1 mph SW5.0 kmh SW 4.5 mph7.2 kmh 29.27 in991.2 mb 0.00 in0.0 mm 0.00 in0.0 mm 0.50 in12.7 mm
06:45 PM 39.2°F4.0°C 31.3°F-0.4°C 73% 3.1 mph SW5.0 kmh SW 4.5 mph7.2 kmh 29.27 in991.2 mb 0.00 in0.0 mm 0.00 in0.0 mm 0.50 in12.7 mm
07:00 PM 39.2°F4.0°C 31.3°F-0.4°C 73% 3.1 mph SW5.0 kmh SW 4.5 mph7.2 kmh 29.27 in991.2 mb 0.00 in0.0 mm 0.00 in0.0 mm 0.50 in12.7 mm
07:15 PM 39.2°F4.0°C 31.3°F-0.4°C 73% 3.1 mph SW5.0 kmh SW 4.5 mph7.2 kmh 29.27 in991.2 mb 0.00 in0.0 mm 0.00 in0.0 mm 0.50 in12.7 mm
07:30 PM 39.2°F4.0°C 31.3°F-0.4°C 73% 3.1 mph SW5.0 kmh SW 4.5 mph7.2 kmh 29.27 in991.2 mb 0.00 in0.0 mm 0.00 in0.0 mm 0.50 in12.7 mm
07:45 PM 39.2°F4.0°C 31.3°F-0.4°C 73% 3.1 mph SW5.0 kmh SW 4.5 mph7.2 kmh 29.27 in991.2 mb 0.00 in0.0 mm 0.00 in0.0 mm 0.50 in12.7 mm
08:00 PM 39.2°F4.0°C 31.3°F-0.4°C 73% 3.1 mph SW5.0 kmh SW 4.5 mph7.2 kmh 29.27 in991.2 mb 0.00 in0.0 mm 0.00 in0.0 mm 0.50 in12.7 mm
08:15 PM 39.2°F4.0°C 31.3°F-0.4°C 73% 3.1 mph SW5.0 kmh SW 4.5 mph7.2 kmh 29.27 in991.2 mb 0.00 in0.0 mm 0.00 in0.0 mm 0.50 in12.7 mm
08:30 PM 39.2°F4.0°C 31.3°F-0.4°C 73% 3.1 mph SW5.0 kmh SW 4.5 mph7.2 kmh 29.27 in991.2 mb 0.00 in0.0 mm 0.00 in0.0 mm 0.50 in12.7 mm
08:45 PM 39.2°F4.0°C 31.3°F-0.4°C 73% 3.1 mph SW5.0 kmh SW 4.5 mph7.2 kmh 29.27 in991.2 mb 0.00 in0.0 mm 0.00 in0.0 mm 0.50 in12.7 mm
09:00 PM 39.2°F4.0°C 31.3°F-0.4°C 73% 3.1 mph SW5.0 kmh SW 4.5 mph7.2 kmh 29.27 in991.2 mb 0.00 in0.0 mm 0.00 in0.0 mm 0.50 in12.7 mm
09:15 PM 37.6°F3.1°C 22.0°F-5.6°C 53% Calm Calm 6.0 mph9.7 kmh 29.36 in994.2 mb 0.00 in0.0 mm 0.00 in0.0 mm 0.50 in12.7 mm
09:30 PM 37.2°F2.9°C 21.7°F-5.7°C 53% 1.6 mph WSW2.6 kmh WSW 5.4 mph8.7 kmh 29.37 in994.6 mb 0.00 in0.0 mm 0.00 in0.0 mm 0.50 in12.7 mm
09:45 PM 36.0°F2.2°C 22.6°F-5.2°C 58% 0.7 mph WSW1.1 kmh WSW 3.1 mph5.0 kmh 29.37 in994.6 mb 0.00 in0.0 mm 0.00 in0.0 mm 0.50 in12.7 mm
10:00 PM 35.6°F2.0°C 22.7°F-5.2°C 59% 1.6 mph WSW2.6 kmh WSW 2.2 mph3.5 kmh 29.37 in994.6 mb 0.00 in0.0 mm 0.00 in0.0 mm 0.50 in12.7 mm
10:15 PM 36.0°F2.2°C 23.4°F-4.8°C 60% 1.6 mph SW2.6 kmh SW 2.2 mph3.5 kmh 29.37 in994.6 mb 0.00 in0.0 mm 0.00 in0.0 mm 0.50 in12.7 mm
10:30 PM 36.0°F2.2°C 22.6°F-5.2°C 58% 0.7 mph NW1.1 kmh NW 4.5 mph7.2 kmh 29.37 in994.6 mb 0.00 in0.0 mm 0.00 in0.0 mm 0.50 in12.7 mm
10:45 PM 36.5°F2.5°C 22.7°F-5.2°C 57% 2.2 mph W3.5 kmh W 3.1 mph5.0 kmh 29.37 in994.6 mb 0.00 in0.0 mm 0.00 in0.0 mm 0.50 in12.7 mm
11:00 PM 36.5°F2.5°C 23.1°F-4.9°C 58% Calm Calm 1.6 mph2.6 kmh 29.37 in994.6 mb 0.00 in0.0 mm 0.00 in0.0 mm 0.50 in12.7 mm
11:15 PM 35.8°F2.1°C 23.3°F-4.8°C 60% 1.6 mph W2.6 kmh W 3.1 mph5.0 kmh 29.37 in994.6 mb 0.00 in0.0 mm 0.00 in0.0 mm 0.50 in12.7 mm
11:30 PM 35.4°F1.9°C 23.3°F-4.8°C 61% 1.6 mph WSW2.6 kmh WSW 2.2 mph3.5 kmh 29.37 in994.6 mb 0.00 in0.0 mm 0.00 in0.0 mm 0.50 in12.7 mm
11:45 PM 34.7°F1.5°C 23.0°F-5.0°C 62% 0.7 mph ESE1.1 kmh ESE 2.2 mph3.5 kmh 29.38 in994.9 mb 0.00 in0.0 mm 0.00 in0.0 mm 0.50 in12.7 mm